sensor_id;sensor_type;location;lat;lon;timestamp;pressure;altitude;pressure_sealevel;temperature;humidity
15193;BME280;7697;51.630;7.484;2022-07-03T00:03:08;100967.97;;;21.75;60.75
15193;BME280;7697;51.630;7.484;2022-07-03T00:08:11;100966.84;;;21.65;61.37
15193;BME280;7697;51.630;7.484;2022-07-03T00:13:13;100955.47;;;21.53;62.13
15193;BME280;7697;51.630;7.484;2022-07-03T00:18:15;100949.22;;;21.43;61.83
15193;BME280;7697;51.630;7.484;2022-07-03T00:23:19;100950.78;;;21.33;62.14
15193;BME280;7697;51.630;7.484;2022-07-03T00:28:23;100942.38;;;21.25;62.54
15193;BME280;7697;51.630;7.484;2022-07-03T00:33:27;100942.28;;;21.15;62.33
15193;BME280;7697;51.630;7.484;2022-07-03T00:38:32;100951.94;;;21.06;62.57
15193;BME280;7697;51.630;7.484;2022-07-03T00:43:34;100961.56;;;20.96;62.77
15193;BME280;7697;51.630;7.484;2022-07-03T00:48:37;100955.28;;;20.86;62.98
15193;BME280;7697;51.630;7.484;2022-07-03T00:53:41;100964.41;;;20.80;63.40
15193;BME280;7697;51.630;7.484;2022-07-03T00:58:44;100958.94;;;20.70;63.35
15193;BME280;7697;51.630;7.484;2022-07-03T01:03:46;100966.66;;;20.61;63.78
15193;BME280;7697;51.630;7.484;2022-07-03T01:08:52;100969.00;;;20.52;64.28
15193;BME280;7697;51.630;7.484;2022-07-03T01:14:08;100961.66;;;20.43;64.46
15193;BME280;7697;51.630;7.484;2022-07-03T01:19:30;100953.44;;;20.33;65.08
15193;BME280;7697;51.630;7.484;2022-07-03T01:24:59;100948.59;;;20.30;65.85
15193;BME280;7697;51.630;7.484;2022-07-03T01:30:08;100937.47;;;20.21;65.72
15193;BME280;7697;51.630;7.484;2022-07-03T01:35:13;100922.50;;;20.03;66.48
15193;BME280;7697;51.630;7.484;2022-07-03T01:40:17;100926.19;;;19.97;67.33
15193;BME280;7697;51.630;7.484;2022-07-03T01:45:20;100924.75;;;19.90;67.57
15193;BME280;7697;51.630;7.484;2022-07-03T01:50:23;100938.41;;;19.83;67.80
15193;BME280;7697;51.630;7.484;2022-07-03T01:55:28;100930.78;;;19.75;67.72
15193;BME280;7697;51.630;7.484;2022-07-03T02:00:40;100933.16;;;19.71;68.87
15193;BME280;7697;51.630;7.484;2022-07-03T02:05:44;100925.72;;;19.57;68.69
15193;BME280;7697;51.630;7.484;2022-07-03T02:10:52;100911.09;;;19.47;69.09
15193;BME280;7697;51.630;7.484;2022-07-03T02:15:59;100911.41;;;19.34;69.34
15193;BME280;7697;51.630;7.484;2022-07-03T02:21:04;100924.94;;;19.39;70.23
15193;BME280;7697;51.630;7.484;2022-07-03T02:26:10;100925.91;;;19.33;70.54
15193;BME280;7697;51.630;7.484;2022-07-03T02:31:16;100917.75;;;19.23;70.61
15193;BME280;7697;51.630;7.484;2022-07-03T02:36:20;100920.75;;;19.10;70.25
15193;BME280;7697;51.630;7.484;2022-07-03T02:41:29;100916.16;;;19.05;70.37
15193;BME280;7697;51.630;7.484;2022-07-03T02:46:42;100920.38;;;19.01;70.95
15193;BME280;7697;51.630;7.484;2022-07-03T02:51:54;100924.78;;;18.91;70.81
15193;BME280;7697;51.630;7.484;2022-07-03T02:57:06;100903.72;;;18.66;71.63
15193;BME280;7697;51.630;7.484;2022-07-03T03:02:14;100925.53;;;18.69;72.30
15193;BME280;7697;51.630;7.484;2022-07-03T03:07:27;100909.81;;;18.61;72.39
15193;BME280;7697;51.630;7.484;2022-07-03T03:12:31;100918.22;;;18.53;71.91
15193;BME280;7697;51.630;7.484;2022-07-03T03:17:42;100931.81;;;18.47;72.52
15193;BME280;7697;51.630;7.484;2022-07-03T03:23:09;100921.72;;;18.37;73.08
15193;BME280;7697;51.630;7.484;2022-07-03T03:28:12;100924.50;;;18.42;72.97
15193;BME280;7697;51.630;7.484;2022-07-03T03:33:16;100910.81;;;18.27;73.10
15193;BME280;7697;51.630;7.484;2022-07-03T03:38:18;100919.78;;;18.32;73.12
15193;BME280;7697;51.630;7.484;2022-07-03T03:43:20;100920.66;;;18.38;73.13
15193;BME280;7697;51.630;7.484;2022-07-03T03:48:23;100918.81;;;18.38;73.71
15193;BME280;7697;51.630;7.484;2022-07-03T03:53:26;100919.63;;;18.39;73.77
15193;BME280;7697;51.630;7.484;2022-07-03T03:58:28;100922.28;;;18.39;73.51
15193;BME280;7697;51.630;7.484;2022-07-03T04:03:32;100924.16;;;18.38;73.38
15193;BME280;7697;51.630;7.484;2022-07-03T04:08:34;100920.91;;;18.36;73.94
15193;BME280;7697;51.630;7.484;2022-07-03T04:13:36;100928.25;;;18.41;73.76
15193;BME280;7697;51.630;7.484;2022-07-03T04:18:39;100930.59;;;18.54;73.75
15193;BME280;7697;51.630;7.484;2022-07-03T04:23:41;100926.72;;;18.62;73.95
15193;BME280;7697;51.630;7.484;2022-07-03T04:28:43;100912.34;;;18.68;74.11
15193;BME280;7697;51.630;7.484;2022-07-03T04:33:46;100922.50;;;18.83;74.97
15193;BME280;7697;51.630;7.484;2022-07-03T04:38:48;100922.31;;;18.89;74.65
15193;BME280;7697;51.630;7.484;2022-07-03T04:43:49;100933.47;;;18.98;74.83
15193;BME280;7697;51.630;7.484;2022-07-03T04:48:52;100928.66;;;19.00;74.81
15193;BME280;7697;51.630;7.484;2022-07-03T04:53:54;100945.97;;;19.09;74.85
15193;BME280;7697;51.630;7.484;2022-07-03T04:58:56;100938.03;;;19.14;75.01
15193;BME280;7697;51.630;7.484;2022-07-03T05:03:59;100951.31;;;19.26;74.92
15193;BME280;7697;51.630;7.484;2022-07-03T05:09:01;100947.72;;;19.37;74.80
15193;BME280;7697;51.630;7.484;2022-07-03T05:14:02;100953.72;;;19.44;74.93
15193;BME280;7697;51.630;7.484;2022-07-03T05:19:06;100945.41;;;19.45;75.10
15193;BME280;7697;51.630;7.484;2022-07-03T05:24:08;100953.41;;;19.57;75.32
15193;BME280;7697;51.630;7.484;2022-07-03T05:29:09;100959.09;;;19.61;75.14
15193;BME280;7697;51.630;7.484;2022-07-03T05:34:12;100946.78;;;19.65;75.13
15193;BME280;7697;51.630;7.484;2022-07-03T05:39:14;100949.28;;;19.71;74.92
15193;BME280;7697;51.630;7.484;2022-07-03T05:44:34;100972.34;;;19.89;74.98
15193;BME280;7697;51.630;7.484;2022-07-03T05:49:37;100948.72;;;19.91;74.73
15193;BME280;7697;51.630;7.484;2022-07-03T05:54:38;100965.81;;;20.07;73.30
15193;BME280;7697;51.630;7.484;2022-07-03T05:59:40;100958.44;;;20.19;73.54
15193;BME280;7697;51.630;7.484;2022-07-03T06:04:43;100966.69;;;20.34;73.79
15193;BME280;7697;51.630;7.484;2022-07-03T06:09:45;100980.34;;;20.54;73.90
15193;BME280;7697;51.630;7.484;2022-07-03T06:14:48;100985.22;;;20.57;73.91
15193;BME280;7697;51.630;7.484;2022-07-03T06:19:51;100981.03;;;20.72;74.12
15193;BME280;7697;51.630;7.484;2022-07-03T06:24:53;100994.44;;;20.98;73.65
15193;BME280;7697;51.630;7.484;2022-07-03T06:29:54;100994.66;;;21.24;71.47
15193;BME280;7697;51.630;7.484;2022-07-03T06:34:57;101000.44;;;21.48;69.33
15193;BME280;7697;51.630;7.484;2022-07-03T06:39:59;100996.72;;;21.54;68.21
15193;BME280;7697;51.630;7.484;2022-07-03T06:45:01;101007.88;;;21.73;67.36
15193;BME280;7697;51.630;7.484;2022-07-03T06:50:05;100994.53;;;21.98;66.70
15193;BME280;7697;51.630;7.484;2022-07-03T06:55:07;100997.31;;;22.18;66.28
15193;BME280;7697;51.630;7.484;2022-07-03T07:00:10;101005.72;;;22.42;66.61
15193;BME280;7697;51.630;7.484;2022-07-03T07:05:13;101007.63;;;22.67;65.39
15193;BME280;7697;51.630;7.484;2022-07-03T07:10:15;101016.31;;;22.94;63.86
15193;BME280;7697;51.630;7.484;2022-07-03T07:15:17;101013.63;;;23.14;63.68
15193;BME280;7697;51.630;7.484;2022-07-03T07:20:20;101018.44;;;23.43;62.04
15193;BME280;7697;51.630;7.484;2022-07-03T07:25:22;101011.88;;;23.79;59.85
15193;BME280;7697;51.630;7.484;2022-07-03T07:30:23;101018.78;;;24.11;59.67
15193;BME280;7697;51.630;7.484;2022-07-03T07:35:26;101033.28;;;24.35;57.86
15193;BME280;7697;51.630;7.484;2022-07-03T07:40:28;101020.78;;;24.44;58.68
15193;BME280;7697;51.630;7.484;2022-07-03T07:45:30;101025.66;;;24.81;58.10
15193;BME280;7697;51.630;7.484;2022-07-03T07:50:34;101022.94;;;24.86;56.69
15193;BME280;7697;51.630;7.484;2022-07-03T07:55:36;101020.13;;;25.01;56.43
15193;BME280;7697;51.630;7.484;2022-07-03T08:00:38;101017.41;;;25.30;55.72
15193;BME280;7697;51.630;7.484;2022-07-03T08:06:01;101008.97;;;25.61;54.65
15193;BME280;7697;51.630;7.484;2022-07-03T08:11:03;101013.19;;;25.72;55.12
15193;BME280;7697;51.630;7.484;2022-07-03T08:16:05;101027.34;;;25.93;54.46
15193;BME280;7697;51.630;7.484;2022-07-03T08:21:08;101026.28;;;26.12;53.76
15193;BME280;7697;51.630;7.484;2022-07-03T08:26:09;101012.50;;;26.46;52.97
15193;BME280;7697;51.630;7.484;2022-07-03T08:31:11;101009.69;;;26.70;51.10
15193;BME280;7697;51.630;7.484;2022-07-03T08:36:14;101018.22;;;27.15;50.18
15193;BME280;7697;51.630;7.484;2022-07-03T08:41:16;101016.19;;;27.67;49.29
15193;BME280;7697;51.630;7.484;2022-07-03T08:46:20;101013.63;;;28.25;47.44
15193;BME280;7697;51.630;7.484;2022-07-03T08:51:24;101014.09;;;28.41;47.80
15193;BME280;7697;51.630;7.484;2022-07-03T08:56:27;101009.00;;;28.48;47.46
15193;BME280;7697;51.630;7.484;2022-07-03T09:01:30;101005.44;;;28.83;47.24
15193;BME280;7697;51.630;7.484;2022-07-03T09:06:34;101015.44;;;29.19;46.49
15193;BME280;7697;51.630;7.484;2022-07-03T09:11:36;101012.47;;;29.29;45.99
15193;BME280;7697;51.630;7.484;2022-07-03T09:16:39;101012.88;;;29.44;45.48
15193;BME280;7697;51.630;7.484;2022-07-03T09:21:42;101008.09;;;29.50;43.94
15193;BME280;7697;51.630;7.484;2022-07-03T09:26:50;101031.00;;;29.80;43.02
15193;BME280;7697;51.630;7.484;2022-07-03T09:31:55;101029.66;;;30.08;43.23
15193;BME280;7697;51.630;7.484;2022-07-03T09:36:58;101020.66;;;30.08;41.59
15193;BME280;7697;51.630;7.484;2022-07-03T09:42:01;101021.19;;;30.53;42.93
15193;BME280;7697;51.630;7.484;2022-07-03T09:47:14;101018.06;;;30.98;40.87
15193;BME280;7697;51.630;7.484;2022-07-03T09:52:32;101015.50;;;31.01;41.70
15193;BME280;7697;51.630;7.484;2022-07-03T09:57:35;101015.34;;;30.98;41.05
15193;BME280;7697;51.630;7.484;2022-07-03T10:02:56;101022.50;;;31.37;39.85
15193;BME280;7697;51.630;7.484;2022-07-03T10:08:02;101012.50;;;31.79;38.91
15193;BME280;7697;51.630;7.484;2022-07-03T10:13:04;101012.59;;;32.20;38.21
15193;BME280;7697;51.630;7.484;2022-07-03T10:18:08;101015.06;;;32.04;38.64
15193;BME280;7697;51.630;7.484;2022-07-03T10:23:15;101013.31;;;31.79;38.17
15193;BME280;7697;51.630;7.484;2022-07-03T10:28:18;101004.97;;;31.96;36.91
15193;BME280;7697;51.630;7.484;2022-07-03T10:33:21;101005.06;;;32.09;37.64
15193;BME280;7697;51.630;7.484;2022-07-03T10:38:38;101004.91;;;31.84;37.59
15193;BME280;7697;51.630;7.484;2022-07-03T10:43:44;101003.84;;;31.97;36.76
15193;BME280;7697;51.630;7.484;2022-07-03T10:49:04;101023.91;;;32.19;36.62
15193;BME280;7697;51.630;7.484;2022-07-03T10:54:16;101001.59;;;31.70;36.93
15193;BME280;7697;51.630;7.484;2022-07-03T10:59:18;101011.94;;;31.94;36.99
15193;BME280;7697;51.630;7.484;2022-07-03T11:04:20;101010.13;;;32.27;36.48
15193;BME280;7697;51.630;7.484;2022-07-03T11:09:23;101001.84;;;32.06;37.45
15193;BME280;7697;51.630;7.484;2022-07-03T11:14:26;101007.59;;;32.14;37.80
15193;BME280;7697;51.630;7.484;2022-07-03T11:19:29;100999.63;;;32.29;36.58
15193;BME280;7697;51.630;7.484;2022-07-03T11:24:44;101001.63;;;32.20;36.99
15193;BME280;7697;51.630;7.484;2022-07-03T11:29:58;100994.91;;;32.51;35.54
15193;BME280;7697;51.630;7.484;2022-07-03T11:35:01;100994.81;;;32.26;34.26
15193;BME280;7697;51.630;7.484;2022-07-03T11:40:06;100981.00;;;32.35;36.84
15193;BME280;7697;51.630;7.484;2022-07-03T11:45:08;100989.00;;;32.61;34.58
15193;BME280;7697;51.630;7.484;2022-07-03T11:50:11;100998.38;;;31.97;34.88
15193;BME280;7697;51.630;7.484;2022-07-03T11:55:14;100988.16;;;31.77;36.17
15193;BME280;7697;51.630;7.484;2022-07-03T12:00:16;100985.91;;;32.29;34.78
15193;BME280;7697;51.630;7.484;2022-07-03T12:05:18;100997.19;;;32.49;34.56
15193;BME280;7697;51.630;7.484;2022-07-03T12:10:36;100989.16;;;32.64;34.46
15193;BME280;7697;51.630;7.484;2022-07-03T12:15:38;100993.03;;;32.22;35.06
15193;BME280;7697;51.630;7.484;2022-07-03T12:20:40;100997.38;;;32.64;34.76
15193;BME280;7697;51.630;7.484;2022-07-03T12:25:43;100987.59;;;32.75;34.55
15193;BME280;7697;51.630;7.484;2022-07-03T12:30:45;100981.75;;;32.77;33.56
15193;BME280;7697;51.630;7.484;2022-07-03T12:36:01;100978.84;;;32.40;35.12
15193;BME280;7697;51.630;7.484;2022-07-03T12:41:06;100972.41;;;32.78;35.69
15193;BME280;7697;51.630;7.484;2022-07-03T12:46:19;100968.00;;;33.10;33.56
15193;BME280;7697;51.630;7.484;2022-07-03T12:51:38;100976.59;;;32.75;34.17
15193;BME280;7697;51.630;7.484;2022-07-03T12:56:42;100974.84;;;33.04;33.97
15193;BME280;7697;51.630;7.484;2022-07-03T13:01:45;100974.41;;;33.14;33.25
15193;BME280;7697;51.630;7.484;2022-07-03T13:07:01;100964.28;;;32.82;33.48
15193;BME280;7697;51.630;7.484;2022-07-03T13:12:06;100965.44;;;32.81;33.85
15193;BME280;7697;51.630;7.484;2022-07-03T13:17:08;100948.94;;;33.26;34.97
15193;BME280;7697;51.630;7.484;2022-07-03T13:22:10;100959.81;;;33.46;32.65
15193;BME280;7697;51.630;7.484;2022-07-03T13:27:13;100960.66;;;33.02;32.80
15193;BME280;7697;51.630;7.484;2022-07-03T13:32:15;100975.47;;;32.76;33.41
15193;BME280;7697;51.630;7.484;2022-07-03T13:37:17;100959.75;;;32.98;33.33
15193;BME280;7697;51.630;7.484;2022-07-03T13:42:20;100951.47;;;32.86;34.44
15193;BME280;7697;51.630;7.484;2022-07-03T13:47:22;100972.97;;;32.71;34.78
15193;BME280;7697;51.630;7.484;2022-07-03T13:52:24;100968.28;;;32.10;34.56
15193;BME280;7697;51.630;7.484;2022-07-03T13:57:27;100984.72;;;31.89;35.31
15193;BME280;7697;51.630;7.484;2022-07-03T14:02:29;100974.72;;;31.93;35.41
15193;BME280;7697;51.630;7.484;2022-07-03T14:07:31;100970.34;;;31.92;37.04
15193;BME280;7697;51.630;7.484;2022-07-03T14:12:34;100961.44;;;31.74;35.98
15193;BME280;7697;51.630;7.484;2022-07-03T14:17:36;100961.28;;;31.71;37.02
15193;BME280;7697;51.630;7.484;2022-07-03T14:22:38;100981.28;;;31.71;35.48
15193;BME280;7697;51.630;7.484;2022-07-03T14:27:41;100963.94;;;31.50;35.73
15193;BME280;7697;51.630;7.484;2022-07-03T14:33:00;100963.03;;;31.46;36.87
15193;BME280;7697;51.630;7.484;2022-07-03T14:38:02;100963.75;;;31.63;35.56
15193;BME280;7697;51.630;7.484;2022-07-03T14:43:05;100973.50;;;31.44;36.92
15193;BME280;7697;51.630;7.484;2022-07-03T14:48:07;100977.19;;;31.10;36.52
15193;BME280;7697;51.630;7.484;2022-07-03T14:53:10;100977.88;;;30.81;36.41
15193;BME280;7697;51.630;7.484;2022-07-03T14:58:16;100972.59;;;30.76;37.01
15193;BME280;7697;51.630;7.484;2022-07-03T15:03:24;100968.72;;;30.77;36.91
15193;BME280;7697;51.630;7.484;2022-07-03T15:08:43;100962.91;;;30.78;37.44
15193;BME280;7697;51.630;7.484;2022-07-03T15:13:50;100977.06;;;30.80;38.00
15193;BME280;7697;51.630;7.484;2022-07-03T15:18:52;100977.59;;;30.56;37.95
15193;BME280;7697;51.630;7.484;2022-07-03T15:23:55;100981.44;;;30.38;37.92
15193;BME280;7697;51.630;7.484;2022-07-03T15:29:01;100976.91;;;30.08;38.04
15193;BME280;7697;51.630;7.484;2022-07-03T15:34:04;100980.63;;;30.12;37.96
15193;BME280;7697;51.630;7.484;2022-07-03T15:39:07;100975.16;;;30.12;37.81
15193;BME280;7697;51.630;7.484;2022-07-03T15:44:19;100988.03;;;30.11;39.44
15193;BME280;7697;51.630;7.484;2022-07-03T15:49:29;100997.50;;;30.05;38.44
15193;BME280;7697;51.630;7.484;2022-07-03T15:54:43;100980.72;;;29.90;39.53
15193;BME280;7697;51.630;7.484;2022-07-03T15:59:48;100987.28;;;29.80;40.15
15193;BME280;7697;51.630;7.484;2022-07-03T16:05:03;100992.56;;;29.59;39.94
15193;BME280;7697;51.630;7.484;2022-07-03T16:10:06;101005.19;;;29.46;39.05
15193;BME280;7697;51.630;7.484;2022-07-03T16:15:10;100999.00;;;29.32;39.33
15193;BME280;7697;51.630;7.484;2022-07-03T16:20:12;100990.41;;;29.17;40.74
15193;BME280;7697;51.630;7.484;2022-07-03T16:25:16;100979.94;;;28.79;40.57
15193;BME280;7697;51.630;7.484;2022-07-03T16:30:19;100974.75;;;28.55;40.29
15193;BME280;7697;51.630;7.484;2022-07-03T16:35:27;100983.00;;;28.42;41.17
15193;BME280;7697;51.630;7.484;2022-07-03T16:40:32;100976.97;;;28.31;42.33
15193;BME280;7697;51.630;7.484;2022-07-03T16:45:38;100983.38;;;27.99;43.22
15193;BME280;7697;51.630;7.484;2022-07-03T16:50:57;100994.50;;;27.75;42.66
15193;BME280;7697;51.630;7.484;2022-07-03T16:56:00;100990.25;;;27.42;42.87
15193;BME280;7697;51.630;7.484;2022-07-03T17:01:07;100998.06;;;27.30;43.82
15193;BME280;7697;51.630;7.484;2022-07-03T17:06:10;100997.56;;;27.14;43.65
15193;BME280;7697;51.630;7.484;2022-07-03T17:11:12;100999.66;;;27.03;44.45
15193;BME280;7697;51.630;7.484;2022-07-03T17:16:16;101000.25;;;27.00;44.30
15193;BME280;7697;51.630;7.484;2022-07-03T17:21:25;100990.91;;;26.87;45.16
15193;BME280;7697;51.630;7.484;2022-07-03T17:26:31;101009.81;;;26.79;45.13
15193;BME280;7697;51.630;7.484;2022-07-03T17:31:41;101004.63;;;26.64;45.90
15193;BME280;7697;51.630;7.484;2022-07-03T17:36:43;101017.81;;;26.57;45.58
15193;BME280;7697;51.630;7.484;2022-07-03T17:41:46;101013.47;;;26.37;45.85
15193;BME280;7697;51.630;7.484;2022-07-03T17:46:51;101031.81;;;26.26;46.58
15193;BME280;7697;51.630;7.484;2022-07-03T17:51:54;101029.00;;;26.12;45.95
15193;BME280;7697;51.630;7.484;2022-07-03T17:56:58;101029.44;;;26.20;46.35
15193;BME280;7697;51.630;7.484;2022-07-03T18:02:21;101030.13;;;26.06;46.98
15193;BME280;7697;51.630;7.484;2022-07-03T18:07:27;101025.75;;;25.87;47.19
15193;BME280;7697;51.630;7.484;2022-07-03T18:12:36;101024.47;;;25.55;46.68
15193;BME280;7697;51.630;7.484;2022-07-03T18:17:52;101043.81;;;25.49;47.58
15193;BME280;7697;51.630;7.484;2022-07-03T18:22:59;101036.91;;;25.32;47.29
15193;BME280;7697;51.630;7.484;2022-07-03T18:28:02;101058.91;;;25.31;47.87
15193;BME280;7697;51.630;7.484;2022-07-03T18:33:05;101050.69;;;25.07;47.92
15193;BME280;7697;51.630;7.484;2022-07-03T18:38:11;101064.38;;;24.92;48.97
15193;BME280;7697;51.630;7.484;2022-07-03T18:43:13;101067.69;;;24.79;49.93
15193;BME280;7697;51.630;7.484;2022-07-03T18:48:17;101067.19;;;24.77;50.10
15193;BME280;7697;51.630;7.484;2022-07-03T18:53:24;101070.16;;;24.75;50.55
15193;BME280;7697;51.630;7.484;2022-07-03T18:58:39;101062.88;;;24.71;50.22
15193;BME280;7697;51.630;7.484;2022-07-03T19:03:50;101066.75;;;24.59;50.99
15193;BME280;7697;51.630;7.484;2022-07-03T19:09:00;101073.84;;;24.50;50.73
15193;BME280;7697;51.630;7.484;2022-07-03T19:14:05;101080.94;;;24.41;51.50
15193;BME280;7697;51.630;7.484;2022-07-03T19:19:13;101071.81;;;24.22;51.86
15193;BME280;7697;51.630;7.484;2022-07-03T19:24:15;101088.09;;;24.07;51.24
15193;BME280;7697;51.630;7.484;2022-07-03T19:29:17;101094.63;;;23.96;51.28
15193;BME280;7697;51.630;7.484;2022-07-03T19:34:20;101088.19;;;23.71;51.08
15193;BME280;7697;51.630;7.484;2022-07-03T19:39:22;101098.22;;;23.71;51.07
15193;BME280;7697;51.630;7.484;2022-07-03T19:44:24;101097.41;;;23.65;51.02
15193;BME280;7697;51.630;7.484;2022-07-03T19:49:27;101116.63;;;23.69;51.10
15193;BME280;7697;51.630;7.484;2022-07-03T19:54:29;101114.19;;;23.57;50.97
15193;BME280;7697;51.630;7.484;2022-07-03T19:59:31;101110.66;;;23.41;51.11
15193;BME280;7697;51.630;7.484;2022-07-03T20:04:34;101123.09;;;23.27;51.65
15193;BME280;7697;51.630;7.484;2022-07-03T20:09:36;101141.19;;;23.27;52.28
15193;BME280;7697;51.630;7.484;2022-07-03T20:14:39;101139.84;;;23.14;52.08
15193;BME280;7697;51.630;7.484;2022-07-03T20:19:43;101153.88;;;23.11;52.51
15193;BME280;7697;51.630;7.484;2022-07-03T20:24:45;101162.00;;;23.06;53.03
15193;BME280;7697;51.630;7.484;2022-07-03T20:29:47;101176.59;;;23.05;53.23
15193;BME280;7697;51.630;7.484;2022-07-03T20:34:51;101183.31;;;22.92;53.44
15193;BME280;7697;51.630;7.484;2022-07-03T20:40:13;101176.22;;;22.76;53.75
15193;BME280;7697;51.630;7.484;2022-07-03T20:45:20;101189.47;;;22.77;53.61
15193;BME280;7697;51.630;7.484;2022-07-03T20:50:31;101194.25;;;22.65;54.06
15193;BME280;7697;51.630;7.484;2022-07-03T20:55:36;101196.66;;;22.57;54.50
15193;BME280;7697;51.630;7.484;2022-07-03T21:00:41;101208.00;;;22.54;54.53
15193;BME280;7697;51.630;7.484;2022-07-03T21:05:46;101202.28;;;22.45;54.32
15193;BME280;7697;51.630;7.484;2022-07-03T21:10:47;101207.06;;;22.33;54.64
15193;BME280;7697;51.630;7.484;2022-07-03T21:16:07;101208.63;;;22.19;54.88
15193;BME280;7697;51.630;7.484;2022-07-03T21:21:10;101209.84;;;22.01;55.08
15193;BME280;7697;51.630;7.484;2022-07-03T21:26:12;101205.94;;;21.87;55.39
15193;BME280;7697;51.630;7.484;2022-07-03T21:31:13;101214.47;;;21.74;55.17
15193;BME280;7697;51.630;7.484;2022-07-03T21:36:17;101224.94;;;21.70;55.89
15193;BME280;7697;51.630;7.484;2022-07-03T21:41:19;101217.22;;;21.52;55.82
15193;BME280;7697;51.630;7.484;2022-07-03T21:46:21;101221.72;;;21.41;56.10
15193;BME280;7697;51.630;7.484;2022-07-03T21:51:24;101215.41;;;21.30;55.82
15193;BME280;7697;51.630;7.484;2022-07-03T21:56:26;101228.53;;;21.22;56.56
15193;BME280;7697;51.630;7.484;2022-07-03T22:01:28;101229.47;;;21.11;56.93
15193;BME280;7697;51.630;7.484;2022-07-03T22:06:31;101222.25;;;20.94;57.10
15193;BME280;7697;51.630;7.484;2022-07-03T22:11:33;101216.25;;;20.87;57.37
15193;BME280;7697;51.630;7.484;2022-07-03T22:16:54;101220.97;;;20.75;57.08
15193;BME280;7697;51.630;7.484;2022-07-03T22:21:57;101226.75;;;20.67;57.12
15193;BME280;7697;51.630;7.484;2022-07-03T22:26:59;101217.94;;;20.50;57.86
15193;BME280;7697;51.630;7.484;2022-07-03T22:32:01;101212.69;;;20.38;57.83
15193;BME280;7697;51.630;7.484;2022-07-03T22:37:04;101225.97;;;20.28;58.32
15193;BME280;7697;51.630;7.484;2022-07-03T22:42:06;101213.91;;;20.14;58.75
15193;BME280;7697;51.630;7.484;2022-07-03T22:47:09;101219.22;;;20.09;58.26
15193;BME280;7697;51.630;7.484;2022-07-03T22:52:12;101212.56;;;19.95;58.88
15193;BME280;7697;51.630;7.484;2022-07-03T22:57:14;101212.16;;;19.86;59.03
15193;BME280;7697;51.630;7.484;2022-07-03T23:02:16;101208.72;;;19.74;59.11
15193;BME280;7697;51.630;7.484;2022-07-03T23:07:19;101221.34;;;19.73;59.22
15193;BME280;7697;51.630;7.484;2022-07-03T23:12:21;101203.91;;;19.59;59.35
15193;BME280;7697;51.630;7.484;2022-07-03T23:17:23;101207.78;;;19.52;59.70
15193;BME280;7697;51.630;7.484;2022-07-03T23:22:29;101217.03;;;19.44;59.92
15193;BME280;7697;51.630;7.484;2022-07-03T23:27:30;101211.75;;;19.32;59.92
15193;BME280;7697;51.630;7.484;2022-07-03T23:32:32;101206.19;;;19.22;60.17
15193;BME280;7697;51.630;7.484;2022-07-03T23:37:35;101216.81;;;19.17;60.39
15193;BME280;7697;51.630;7.484;2022-07-03T23:42:37;101225.25;;;19.09;60.94
15193;BME280;7697;51.630;7.484;2022-07-03T23:47:39;101212.69;;;18.98;61.35
15193;BME280;7697;51.630;7.484;2022-07-03T23:52:42;101212.50;;;18.88;61.57
15193;BME280;7697;51.630;7.484;2022-07-03T23:57:44;101212.75;;;18.74;62.16
